createdAt,value
2019-01-05T00:01:52.499Z,99.90
2019-01-05T00:05:01.715Z,99.90
2019-01-05T00:08:06.831Z,99.90
2019-01-05T00:11:21.114Z,99.90
2019-01-05T00:14:45.806Z,99.90
2019-01-05T00:17:55.839Z,99.90
2019-01-05T00:21:00.862Z,99.90
2019-01-05T00:24:14.776Z,99.90
2019-01-05T00:27:33.781Z,99.90
2019-01-05T00:30:38.861Z,99.90
2019-01-05T00:33:48.785Z,99.90
2019-01-05T00:37:11.927Z,99.90
2019-01-05T00:40:35.303Z,99.90
2019-01-05T00:43:50.636Z,99.90
2019-01-05T00:46:59.900Z,99.90
2019-01-05T00:50:08.599Z,99.90
2019-01-05T00:53:17.851Z,99.90
2019-01-05T00:56:27.382Z,99.90
2019-01-05T00:59:40.353Z,99.90
2019-01-05T01:02:48.595Z,99.90
2019-01-05T01:06:00.678Z,99.90
2019-01-05T01:09:07.474Z,99.90
2019-01-05T01:12:16.741Z,99.90
2019-01-05T01:15:38.187Z,99.90
2019-01-05T01:18:47.182Z,99.90
2019-01-05T01:22:07.243Z,99.90
2019-01-05T01:25:19.895Z,99.90
2019-01-05T01:28:34.854Z,99.90
2019-01-05T01:31:42.610Z,99.90
2019-01-05T01:34:50.398Z,99.90
2019-01-05T01:38:59.565Z,99.90
2019-01-05T01:42:11.703Z,99.90
2019-01-05T01:45:19.719Z,99.90
2019-01-05T01:48:28.744Z,99.90
2019-01-05T01:51:50.068Z,99.90
2019-01-05T01:55:13.530Z,99.90
2019-01-05T01:58:41.739Z,99.90
2019-01-05T02:02:06.602Z,99.90
2019-01-05T02:05:17.161Z,99.90
2019-01-05T02:08:32.009Z,99.90
2019-01-05T02:11:41.643Z,99.90
2019-01-05T02:14:51.110Z,99.90
2019-01-05T02:19:05.185Z,99.90
2019-01-05T02:23:10.818Z,99.90
2019-01-05T02:26:59.910Z,99.90
2019-01-05T02:30:48.949Z,99.90
2019-01-05T02:34:18.686Z,99.90
2019-01-05T02:38:01.080Z,99.90
2019-01-05T02:41:51.064Z,99.90
2019-01-05T02:45:52.778Z,99.90
2019-01-05T02:49:43.388Z,99.90
2019-01-05T02:53:22.735Z,99.90
2019-01-05T02:57:25.372Z,99.90
2019-01-05T03:01:21.731Z,99.90
2019-01-05T03:05:22.032Z,99.90
2019-01-05T03:09:46.579Z,99.90
2019-01-05T03:13:48.831Z,99.90
2019-01-05T03:17:32.606Z,99.90
2019-01-05T03:21:18.343Z,99.90
2019-01-05T03:25:02.413Z,99.90
2019-01-05T03:29:14.481Z,99.90
2019-01-05T03:32:56.684Z,99.90
2019-01-05T03:36:47.405Z,99.90
2019-01-05T03:40:33.683Z,99.90
2019-01-05T03:44:25.284Z,99.90
2019-01-05T03:48:37.630Z,99.90
2019-01-05T03:52:32.923Z,99.90
2019-01-05T03:56:41.166Z,99.90
2019-01-05T04:00:26.312Z,99.90
2019-01-05T04:04:44.278Z,99.90
2019-01-05T04:08:18.817Z,99.90
2019-01-05T04:12:23.548Z,99.90
2019-01-05T04:16:03.717Z,99.90
2019-01-05T04:19:57.027Z,99.90
2019-01-05T04:24:13.397Z,99.90
2019-01-05T04:27:58.218Z,99.90
2019-01-05T04:31:38.550Z,99.90
2019-01-05T04:35:56.460Z,99.90
2019-01-05T04:40:07.003Z,99.90
2019-01-05T04:43:44.463Z,99.90
2019-01-05T04:47:29.762Z,99.90
2019-01-05T04:51:10.277Z,99.90
2019-01-05T04:55:10.239Z,99.90
2019-01-05T04:59:24.506Z,99.90
2019-01-05T05:03:06.410Z,99.90
2019-01-05T05:07:11.859Z,99.90
2019-01-05T05:11:16.889Z,99.90
2019-01-05T05:15:10.728Z,99.90
2019-01-05T05:19:15.214Z,99.90
2019-01-05T05:23:04.026Z,99.90
2019-01-05T05:27:02.893Z,99.90
2019-01-05T05:31:07.090Z,99.90
2019-01-05T05:35:01.092Z,99.90
2019-01-05T05:38:59.547Z,99.90
2019-01-05T05:42:51.564Z,99.90
2019-01-05T05:46:52.200Z,99.90
2019-01-05T05:51:03.760Z,99.90
2019-01-05T05:54:48.857Z,99.90
2019-01-05T05:58:43.781Z,99.90
2019-01-05T06:02:34.841Z,99.90
2019-01-05T06:06:29.087Z,99.90
2019-01-05T06:10:36.740Z,99.90
2019-01-05T06:14:23.466Z,99.90
2019-01-05T06:18:14.573Z,99.90
2019-01-05T06:22:06.535Z,99.90
2019-01-05T06:25:57.489Z,99.90
2019-01-05T06:29:40.478Z,99.90
2019-01-05T06:33:42.882Z,99.90
2019-01-05T06:37:27.014Z,99.90
2019-01-05T06:41:35.824Z,99.90
2019-01-05T06:45:14.611Z,99.90
2019-01-05T06:48:45.446Z,99.90
2019-01-05T06:52:55.103Z,99.90
2019-01-05T06:57:13.135Z,99.90
2019-01-05T07:00:51.527Z,99.90
2019-01-05T07:04:43.469Z,99.90
2019-01-05T07:08:35.951Z,99.90
2019-01-05T07:12:52.858Z,99.90
2019-01-05T07:16:34.437Z,99.90
2019-01-05T07:20:04.630Z,99.90
2019-01-05T07:23:55.163Z,99.90
2019-01-05T07:27:52.668Z,99.90
2019-01-05T07:31:36.838Z,99.90
2019-01-05T07:35:32.690Z,99.90
2019-01-05T07:39:30.524Z,99.90
2019-01-05T07:43:18.417Z,99.90
2019-01-05T07:46:52.426Z,99.90
2019-01-05T07:50:59.242Z,99.90
2019-01-05T07:54:43.313Z,99.90
2019-01-05T07:58:24.481Z,99.90
2019-01-05T08:02:23.272Z,99.90
2019-01-05T08:06:06.870Z,99.90
2019-01-05T08:09:55.492Z,99.90
2019-01-05T08:13:41.858Z,99.90
2019-01-05T08:17:49.070Z,99.90
2019-01-05T08:21:59.250Z,99.90
2019-01-05T08:25:44.769Z,99.90
2019-01-05T08:29:47.509Z,99.90
2019-01-05T08:33:44.443Z,99.90
2019-01-05T08:37:22.009Z,99.90
2019-01-05T08:41:22.198Z,99.90
2019-01-05T08:45:20.506Z,99.90
2019-01-05T08:49:20.723Z,99.90
2019-01-05T08:53:15.986Z,99.90
2019-01-05T08:57:11.365Z,99.90
2019-01-05T09:00:45.706Z,99.90
2019-01-05T09:04:33.534Z,99.90
2019-01-05T09:08:15.732Z,99.90
2019-01-05T09:12:42.218Z,99.90
2019-01-05T09:16:59.955Z,99.90
2019-01-05T09:20:41.114Z,99.90
2019-01-05T09:24:25.681Z,99.90
2019-01-05T09:28:17.730Z,99.90
2019-01-05T09:31:50.581Z,99.90
2019-01-05T09:35:27.158Z,99.90
2019-01-05T09:39:38.233Z,99.90
2019-01-05T09:43:22.874Z,99.90
2019-01-05T09:47:14.650Z,99.90
2019-01-05T09:51:09.127Z,99.90
2019-01-05T09:54:47.800Z,99.90
2019-01-05T09:58:42.752Z,99.90
2019-01-05T10:02:25.451Z,99.90
2019-01-05T10:06:46.097Z,99.90
2019-01-05T10:10:36.838Z,99.90
2019-01-05T10:14:26.085Z,99.90
2019-01-05T10:18:12.003Z,99.90
2019-01-05T10:21:56.866Z,99.90
2019-01-05T10:25:46.678Z,99.90
2019-01-05T10:30:04.223Z,99.90
2019-01-05T10:34:03.309Z,99.90
2019-01-05T10:37:46.867Z,99.90
2019-01-05T10:41:36.788Z,99.90
2019-01-05T10:45:46.397Z,99.90
2019-01-05T10:49:32.135Z,99.90
2019-01-05T10:53:34.598Z,99.90
2019-01-05T10:57:22.049Z,99.90
2019-01-05T11:01:17.410Z,99.90
2019-01-05T11:05:34.542Z,99.90
2019-01-05T11:09:13.006Z,99.90
2019-01-05T11:13:06.300Z,99.90
2019-01-05T11:16:56.930Z,99.90
2019-01-05T11:20:40.821Z,99.90
2019-01-05T11:24:24.879Z,99.90
2019-01-05T11:28:19.470Z,99.90
2019-01-05T11:32:06.871Z,99.90
2019-01-05T11:36:17.908Z,99.90
2019-01-05T11:40:03.065Z,99.60
2019-01-05T11:44:07.513Z,99.70
2019-01-05T11:47:58.822Z,99.40
2019-01-05T11:51:42.052Z,98.60
2019-01-05T11:55:31.399Z,99.50
2019-01-05T11:59:49.779Z,99.00
2019-01-05T12:03:40.429Z,98.80
2019-01-05T12:07:43.596Z,98.50
2019-01-05T12:11:44.996Z,98.40
2019-01-05T12:15:37.164Z,98.80
2019-01-05T12:19:45.941Z,98.90
2019-01-05T12:23:24.839Z,99.20
2019-01-05T12:27:13.698Z,99.10
2019-01-05T12:30:57.646Z,99.40
2019-01-05T12:34:48.106Z,99.60
2019-01-05T12:38:48.454Z,99.70
2019-01-05T12:42:36.354Z,99.90
2019-01-05T12:46:22.588Z,99.90
2019-01-05T12:50:32.562Z,99.90
2019-01-05T12:54:33.351Z,99.90
2019-01-05T12:58:37.831Z,99.90
2019-01-05T13:02:32.648Z,99.90
2019-01-05T13:06:21.154Z,99.80
2019-01-05T13:09:59.903Z,98.70
2019-01-05T13:14:10.810Z,98.50
2019-01-05T13:18:03.153Z,98.40
2019-01-05T13:21:47.270Z,98.50
2019-01-05T13:25:29.913Z,98.80
2019-01-05T13:29:24.390Z,98.30
2019-01-05T13:32:58.075Z,98.70
2019-01-05T13:36:43.087Z,98.00
2019-01-05T13:40:16.146Z,97.80
2019-01-05T13:43:47.703Z,97.90
2019-01-05T13:47:44.041Z,97.90
2019-01-05T13:51:28.173Z,97.90
2019-01-05T13:54:43.538Z,97.80
2019-01-05T13:57:53.746Z,97.60
2019-01-05T14:01:09.214Z,97.40
2019-01-05T14:04:17.402Z,97.90
2019-01-05T14:07:42.043Z,97.00
2019-01-05T14:10:46.594Z,97.10
2019-01-05T14:13:54.671Z,96.50
2019-01-05T14:17:02.646Z,96.50
2019-01-05T14:20:12.094Z,96.30
2019-01-05T14:23:39.653Z,96.50
2019-01-05T14:26:47.607Z,95.80
2019-01-05T14:30:11.521Z,96.00
2019-01-05T14:33:19.811Z,96.70
2019-01-05T14:36:35.184Z,96.00
2019-01-05T14:39:43.895Z,96.60
2019-01-05T14:42:51.998Z,96.20
2019-01-05T14:46:09.770Z,96.30
2019-01-05T14:49:37.352Z,95.90
2019-01-05T14:52:55.462Z,96.60
2019-01-05T14:56:07.662Z,96.50
2019-01-05T14:59:31.462Z,97.10
2019-01-05T15:02:43.856Z,97.10
2019-01-05T15:05:57.691Z,97.40
2019-01-05T15:09:05.841Z,97.60
2019-01-05T15:12:14.387Z,97.20
2019-01-05T15:15:35.525Z,97.90
2019-01-05T15:18:43.346Z,97.70
2019-01-05T15:21:58.694Z,97.60
2019-01-05T15:25:06.391Z,97.10
2019-01-05T15:28:14.454Z,97.80
2019-01-05T15:31:39.355Z,97.90
2019-01-05T15:34:57.415Z,98.40
2019-01-05T15:38:12.686Z,98.40
2019-01-05T15:41:21.647Z,99.10
2019-01-05T15:44:29.606Z,98.80
2019-01-05T15:47:34.566Z,98.90
2019-01-05T15:50:42.586Z,98.60
2019-01-05T15:53:54.599Z,99.00
2019-01-05T15:57:09.944Z,98.70
2019-01-05T16:00:17.993Z,98.90
2019-01-05T16:03:26.341Z,98.80
2019-01-05T16:06:48.114Z,98.90
2019-01-05T16:09:56.110Z,98.90
2019-01-05T16:13:05.433Z,98.80
2019-01-05T16:16:14.882Z,99.10
2019-01-05T16:19:27.083Z,98.80
2019-01-05T16:22:39.142Z,99.30
2019-01-05T16:25:47.169Z,99.70
2019-01-05T16:28:46.685Z,99.50
2019-01-05T16:32:02.032Z,99.40
2019-01-05T16:35:02.712Z,99.50
2019-01-05T16:38:10.646Z,99.70
2019-01-05T16:41:38.478Z,99.90
2019-01-05T16:44:59.244Z,99.90
2019-01-05T16:48:26.331Z,99.30
2019-01-05T16:51:41.554Z,99.50
2019-01-05T16:54:53.933Z,99.00
2019-01-05T16:58:21.923Z,98.30
2019-01-05T17:01:29.967Z,98.30
2019-01-05T17:04:38.266Z,98.10
2019-01-05T17:08:06.171Z,98.40
2019-01-05T17:11:14.051Z,98.80
2019-01-05T17:14:21.867Z,97.60
2019-01-05T17:17:34.161Z,97.60
2019-01-05T17:20:43.680Z,97.10
2019-01-05T17:23:51.762Z,97.30
2019-01-05T17:27:00.738Z,97.50
2019-01-05T17:30:08.838Z,97.20
2019-01-05T17:33:27.201Z,97.10
2019-01-05T17:36:32.859Z,96.70
2019-01-05T17:39:48.132Z,97.20
2019-01-05T17:42:57.917Z,96.80
2019-01-05T17:46:06.184Z,96.80
2019-01-05T17:49:15.529Z,97.40
2019-01-05T17:52:25.301Z,97.00
2019-01-05T17:55:33.930Z,97.60
2019-01-05T17:58:40.658Z,97.80
2019-01-05T18:02:02.090Z,97.50
2019-01-05T18:05:20.219Z,97.00
2019-01-05T18:08:32.346Z,96.60
2019-01-05T18:11:50.990Z,96.50
2019-01-05T18:15:02.987Z,97.10
2019-01-05T18:18:27.380Z,96.40
2019-01-05T18:21:32.207Z,96.40
2019-01-05T18:24:50.853Z,96.30
2019-01-05T18:28:09.200Z,96.90
2019-01-05T18:31:18.128Z,96.80
2019-01-05T18:34:26.031Z,97.30
2019-01-05T18:37:34.245Z,97.10
2019-01-05T18:40:46.414Z,97.10
2019-01-05T18:43:58.494Z,97.50
2019-01-05T18:47:06.652Z,97.70
2019-01-05T18:50:15.612Z,97.50
2019-01-05T18:53:24.329Z,97.90
2019-01-05T18:56:39.802Z,97.60
2019-01-05T18:59:52.182Z,97.10
2019-01-05T19:03:13.630Z,97.50
2019-01-05T19:06:32.082Z,97.50
2019-01-05T19:09:40.026Z,97.10
2019-01-05T19:12:52.328Z,97.40
2019-01-05T19:16:13.650Z,96.50
2019-01-05T19:19:21.784Z,96.40
2019-01-05T19:22:33.958Z,96.30
2019-01-05T19:25:41.563Z,96.20
2019-01-05T19:28:53.728Z,96.30
2019-01-05T19:31:55.354Z,96.10
2019-01-05T19:35:07.184Z,96.10
2019-01-05T19:38:17.099Z,95.60
2019-01-05T19:41:25.261Z,95.40
2019-01-05T19:44:33.410Z,95.70
2019-01-05T19:47:57.662Z,95.70
2019-01-05T19:51:01.342Z,96.00
2019-01-05T19:54:10.541Z,95.80
2019-01-05T19:57:31.748Z,95.80
2019-01-05T20:00:56.239Z,95.10
2019-01-05T20:04:05.214Z,94.70
2019-01-05T20:07:32.363Z,93.80
2019-01-05T20:10:40.116Z,93.80
2019-01-05T20:13:47.975Z,93.90
2019-01-05T20:17:06.362Z,94.20
2019-01-05T20:20:36.359Z,94.20
2019-01-05T20:23:48.407Z,95.00
2019-01-05T20:26:56.234Z,95.30
2019-01-05T20:30:04.494Z,95.80
2019-01-05T20:33:26.293Z,95.40
2019-01-05T20:36:38.171Z,95.20
2019-01-05T20:39:47.470Z,95.50
2019-01-05T20:43:00.276Z,96.20
2019-01-05T20:46:15.347Z,95.60
2019-01-05T20:49:36.788Z,95.40
2019-01-05T20:52:44.362Z,95.20
2019-01-05T20:55:50.287Z,94.40
2019-01-05T20:58:58.433Z,94.40
2019-01-05T21:02:06.707Z,95.00
2019-01-05T21:05:31.782Z,94.70
2019-01-05T21:08:39.734Z,95.10
2019-01-05T21:11:58.031Z,94.70
2019-01-05T21:15:07.082Z,94.20
2019-01-05T21:18:17.730Z,94.10
2019-01-05T21:21:25.943Z,93.80
2019-01-05T21:24:33.878Z,93.20
2019-01-05T21:27:42.760Z,93.70
2019-01-05T21:30:54.960Z,93.70
2019-01-05T21:34:22.212Z,93.30
2019-01-05T21:37:26.431Z,93.20
2019-01-05T21:40:34.219Z,93.60
2019-01-05T21:43:52.506Z,94.50
2019-01-05T21:47:10.628Z,94.70
2019-01-05T21:50:19.739Z,94.70
2019-01-05T21:53:47.441Z,95.60
2019-01-05T21:56:57.871Z,95.10
2019-01-05T21:59:57.549Z,95.00
2019-01-05T22:03:07.315Z,95.40
2019-01-05T22:06:16.581Z,95.00
2019-01-05T22:09:33.150Z,95.60
2019-01-05T22:12:41.183Z,95.40
2019-01-05T22:15:49.511Z,95.60
2019-01-05T22:18:57.403Z,95.30
2019-01-05T22:22:09.518Z,95.20
2019-01-05T22:25:17.484Z,94.90
2019-01-05T22:28:25.345Z,95.10
2019-01-05T22:31:37.638Z,95.10
2019-01-05T22:35:04.962Z,95.00
2019-01-05T22:38:23.181Z,95.40
2019-01-05T22:41:34.961Z,95.90
2019-01-05T22:44:53.495Z,95.60
2019-01-05T22:48:00.939Z,95.20
2019-01-05T22:51:12.690Z,95.30
2019-01-05T22:54:22.246Z,95.30
2019-01-05T22:57:29.882Z,94.60
2019-01-05T23:00:38.229Z,94.70
2019-01-05T23:04:05.421Z,94.50
2019-01-05T23:07:28.052Z,94.60
2019-01-05T23:10:36.181Z,94.90
2019-01-05T23:13:44.294Z,95.00
2019-01-05T23:16:58.570Z,95.50
2019-01-05T23:20:16.715Z,95.50
2019-01-05T23:23:24.519Z,95.60
2019-01-05T23:26:32.623Z,95.40
2019-01-05T23:29:46.898Z,95.60
2019-01-05T23:32:56.673Z,95.60
2019-01-05T23:36:11.402Z,95.20
2019-01-05T23:39:19.926Z,95.40
2019-01-05T23:42:38.294Z,95.80
2019-01-05T23:45:48.374Z,96.00
2019-01-05T23:49:06.587Z,96.50
2019-01-05T23:52:14.915Z,96.30
2019-01-05T23:55:39.578Z,96.20
2019-01-05T23:58:51.698Z,96.40
